sensor_id;sensor_type;location;lat;lon;timestamp;P1;durP1;ratioP1;P2;durP2;ratioP2
66927;SDS011;59882;45.624;11.698;2022-12-18T00:02:12;15.18;;;7.10;;
66927;SDS011;59882;45.624;11.698;2022-12-18T00:04:38;15.40;;;7.40;;
66927;SDS011;59882;45.624;11.698;2022-12-18T00:07:04;12.50;;;6.83;;
66927;SDS011;59882;45.624;11.698;2022-12-18T00:09:29;11.65;;;6.53;;
66927;SDS011;59882;45.624;11.698;2022-12-18T00:11:55;17.40;;;7.33;;
66927;SDS011;59882;45.624;11.698;2022-12-18T00:14:21;15.05;;;7.63;;
66927;SDS011;59882;45.624;11.698;2022-12-18T00:16:46;13.13;;;7.43;;
66927;SDS011;59882;45.624;11.698;2022-12-18T00:19:12;14.05;;;7.05;;
66927;SDS011;59882;45.624;11.698;2022-12-18T00:21:39;14.20;;;7.53;;
66927;SDS011;59882;45.624;11.698;2022-12-18T00:24:06;13.63;;;7.25;;
66927;SDS011;59882;45.624;11.698;2022-12-18T00:26:32;16.48;;;8.10;;
66927;SDS011;59882;45.624;11.698;2022-12-18T00:29:04;13.38;;;7.07;;
66927;SDS011;59882;45.624;11.698;2022-12-18T00:31:32;14.48;;;8.00;;
66927;SDS011;59882;45.624;11.698;2022-12-18T00:33:58;16.63;;;6.90;;
66927;SDS011;59882;45.624;11.698;2022-12-18T00:36:25;14.52;;;6.95;;
66927;SDS011;59882;45.624;11.698;2022-12-18T00:38:53;12.70;;;7.53;;
66927;SDS011;59882;45.624;11.698;2022-12-18T00:41:19;13.30;;;7.30;;
66927;SDS011;59882;45.624;11.698;2022-12-18T00:44:06;11.93;;;6.57;;
66927;SDS011;59882;45.624;11.698;2022-12-18T00:46:32;12.20;;;6.93;;
66927;SDS011;59882;45.624;11.698;2022-12-18T00:48:58;10.98;;;6.82;;
66927;SDS011;59882;45.624;11.698;2022-12-18T00:51:24;13.32;;;6.53;;
66927;SDS011;59882;45.624;11.698;2022-12-18T00:53:50;13.90;;;7.30;;
66927;SDS011;59882;45.624;11.698;2022-12-18T00:56:16;11.88;;;6.72;;
66927;SDS011;59882;45.624;11.698;2022-12-18T00:58:41;10.07;;;6.07;;
66927;SDS011;59882;45.624;11.698;2022-12-18T01:01:07;14.05;;;7.88;;
66927;SDS011;59882;45.624;11.698;2022-12-18T01:03:33;10.55;;;6.72;;
66927;SDS011;59882;45.624;11.698;2022-12-18T01:05:59;13.53;;;7.30;;
66927;SDS011;59882;45.624;11.698;2022-12-18T01:08:29;10.18;;;6.68;;
66927;SDS011;59882;45.624;11.698;2022-12-18T01:10:55;10.07;;;6.23;;
66927;SDS011;59882;45.624;11.698;2022-12-18T01:13:21;11.57;;;6.60;;
66927;SDS011;59882;45.624;11.698;2022-12-18T01:15:50;10.63;;;6.70;;
66927;SDS011;59882;45.624;11.698;2022-12-18T01:18:16;12.35;;;6.97;;
66927;SDS011;59882;45.624;11.698;2022-12-18T01:20:41;10.60;;;6.72;;
66927;SDS011;59882;45.624;11.698;2022-12-18T01:23:07;12.20;;;7.00;;
66927;SDS011;59882;45.624;11.698;2022-12-18T01:25:32;10.27;;;6.13;;
66927;SDS011;59882;45.624;11.698;2022-12-18T01:28:00;11.13;;;7.10;;
66927;SDS011;59882;45.624;11.698;2022-12-18T01:30:26;11.75;;;6.90;;
66927;SDS011;59882;45.624;11.698;2022-12-18T01:32:52;11.10;;;7.15;;
66927;SDS011;59882;45.624;11.698;2022-12-18T01:35:18;10.90;;;6.57;;
66927;SDS011;59882;45.624;11.698;2022-12-18T01:37:44;10.57;;;6.00;;
66927;SDS011;59882;45.624;11.698;2022-12-18T01:40:10;10.40;;;6.13;;
66927;SDS011;59882;45.624;11.698;2022-12-18T01:42:36;11.35;;;6.80;;
66927;SDS011;59882;45.624;11.698;2022-12-18T01:47:40;11.53;;;6.03;;
66927;SDS011;59882;45.624;11.698;2022-12-18T01:50:21;11.25;;;6.40;;
66927;SDS011;59882;45.624;11.698;2022-12-18T01:53:14;11.85;;;6.55;;
66927;SDS011;59882;45.624;11.698;2022-12-18T01:55:48;11.35;;;6.47;;
66927;SDS011;59882;45.624;11.698;2022-12-18T01:58:16;13.40;;;7.03;;
66927;SDS011;59882;45.624;11.698;2022-12-18T02:00:43;12.03;;;7.03;;
66927;SDS011;59882;45.624;11.698;2022-12-18T02:03:08;12.75;;;7.20;;
66927;SDS011;59882;45.624;11.698;2022-12-18T02:05:48;15.13;;;8.32;;
66927;SDS011;59882;45.624;11.698;2022-12-18T02:11:10;14.20;;;7.80;;
66927;SDS011;59882;45.624;11.698;2022-12-18T02:16:45;14.52;;;8.07;;
66927;SDS011;59882;45.624;11.698;2022-12-18T02:19:33;13.60;;;7.85;;
66927;SDS011;59882;45.624;11.698;2022-12-18T02:22:24;12.57;;;7.33;;
66927;SDS011;59882;45.624;11.698;2022-12-18T02:27:34;14.15;;;7.55;;
66927;SDS011;59882;45.624;11.698;2022-12-18T02:30:03;13.77;;;7.82;;
66927;SDS011;59882;45.624;11.698;2022-12-18T02:32:31;13.45;;;7.57;;
66927;SDS011;59882;45.624;11.698;2022-12-18T02:35:01;11.80;;;7.60;;
66927;SDS011;59882;45.624;11.698;2022-12-18T02:37:29;12.25;;;7.65;;
66927;SDS011;59882;45.624;11.698;2022-12-18T02:39:57;12.48;;;7.50;;
66927;SDS011;59882;45.624;11.698;2022-12-18T02:42:24;12.23;;;7.18;;
66927;SDS011;59882;45.624;11.698;2022-12-18T02:44:52;11.90;;;7.22;;
66927;SDS011;59882;45.624;11.698;2022-12-18T02:47:19;11.30;;;7.27;;
66927;SDS011;59882;45.624;11.698;2022-12-18T02:55:23;13.77;;;8.23;;
66927;SDS011;59882;45.624;11.698;2022-12-18T02:58:14;17.33;;;7.63;;
66927;SDS011;59882;45.624;11.698;2022-12-18T03:00:48;14.48;;;7.38;;
66927;SDS011;59882;45.624;11.698;2022-12-18T03:06:06;13.10;;;7.88;;
66927;SDS011;59882;45.624;11.698;2022-12-18T03:08:50;12.93;;;7.27;;
66927;SDS011;59882;45.624;11.698;2022-12-18T03:11:23;13.63;;;7.90;;
66927;SDS011;59882;45.624;11.698;2022-12-18T03:14:09;12.38;;;7.60;;
66927;SDS011;59882;45.624;11.698;2022-12-18T03:16:38;12.18;;;7.68;;
66927;SDS011;59882;45.624;11.698;2022-12-18T03:19:14;13.95;;;7.38;;
66927;SDS011;59882;45.624;11.698;2022-12-18T03:21:45;13.03;;;7.53;;
66927;SDS011;59882;45.624;11.698;2022-12-18T03:24:14;11.88;;;7.25;;
66927;SDS011;59882;45.624;11.698;2022-12-18T03:26:43;12.00;;;7.32;;
66927;SDS011;59882;45.624;11.698;2022-12-18T03:29:18;12.77;;;7.03;;
66927;SDS011;59882;45.624;11.698;2022-12-18T03:32:01;11.13;;;7.00;;
66927;SDS011;59882;45.624;11.698;2022-12-18T03:34:37;13.97;;;7.97;;
66927;SDS011;59882;45.624;11.698;2022-12-18T03:37:06;12.65;;;7.75;;
66927;SDS011;59882;45.624;11.698;2022-12-18T03:39:32;13.57;;;7.38;;
66927;SDS011;59882;45.624;11.698;2022-12-18T03:47:42;12.50;;;7.33;;
66927;SDS011;59882;45.624;11.698;2022-12-18T03:50:12;14.85;;;7.53;;
66927;SDS011;59882;45.624;11.698;2022-12-18T03:55:16;16.90;;;7.28;;
66927;SDS011;59882;45.624;11.698;2022-12-18T03:57:44;11.10;;;6.93;;
66927;SDS011;59882;45.624;11.698;2022-12-18T04:00:12;13.17;;;7.20;;
66927;SDS011;59882;45.624;11.698;2022-12-18T04:02:52;13.43;;;7.07;;
66927;SDS011;59882;45.624;11.698;2022-12-18T04:05:21;14.35;;;7.65;;
66927;SDS011;59882;45.624;11.698;2022-12-18T04:07:49;12.65;;;7.18;;
66927;SDS011;59882;45.624;11.698;2022-12-18T04:10:16;12.75;;;7.28;;
66927;SDS011;59882;45.624;11.698;2022-12-18T04:12:42;13.70;;;7.33;;
66927;SDS011;59882;45.624;11.698;2022-12-18T04:15:08;12.13;;;7.18;;
66927;SDS011;59882;45.624;11.698;2022-12-18T04:17:35;12.38;;;7.05;;
66927;SDS011;59882;45.624;11.698;2022-12-18T04:20:00;11.87;;;7.43;;
66927;SDS011;59882;45.624;11.698;2022-12-18T04:22:26;11.70;;;7.40;;
66927;SDS011;59882;45.624;11.698;2022-12-18T04:24:52;12.93;;;7.03;;
66927;SDS011;59882;45.624;11.698;2022-12-18T04:27:18;12.73;;;7.47;;
66927;SDS011;59882;45.624;11.698;2022-12-18T04:29:43;12.70;;;7.27;;
66927;SDS011;59882;45.624;11.698;2022-12-18T04:32:09;12.70;;;7.63;;
66927;SDS011;59882;45.624;11.698;2022-12-18T04:34:35;13.20;;;7.77;;
66927;SDS011;59882;45.624;11.698;2022-12-18T04:37:00;18.95;;;9.75;;
66927;SDS011;59882;45.624;11.698;2022-12-18T04:39:26;16.23;;;9.70;;
66927;SDS011;59882;45.624;11.698;2022-12-18T04:41:52;14.67;;;9.37;;
66927;SDS011;59882;45.624;11.698;2022-12-18T04:44:17;18.73;;;9.97;;
66927;SDS011;59882;45.624;11.698;2022-12-18T04:46:43;17.83;;;10.77;;
66927;SDS011;59882;45.624;11.698;2022-12-18T04:49:08;19.10;;;11.05;;
66927;SDS011;59882;45.624;11.698;2022-12-18T04:51:35;17.70;;;10.77;;
66927;SDS011;59882;45.624;11.698;2022-12-18T04:54:02;15.77;;;9.80;;
66927;SDS011;59882;45.624;11.698;2022-12-18T04:56:27;16.02;;;9.65;;
66927;SDS011;59882;45.624;11.698;2022-12-18T04:58:53;16.47;;;10.80;;
66927;SDS011;59882;45.624;11.698;2022-12-18T05:01:19;19.15;;;11.13;;
66927;SDS011;59882;45.624;11.698;2022-12-18T05:03:44;15.80;;;10.10;;
66927;SDS011;59882;45.624;11.698;2022-12-18T05:06:10;15.60;;;9.05;;
66927;SDS011;59882;45.624;11.698;2022-12-18T05:08:36;13.40;;;8.53;;
66927;SDS011;59882;45.624;11.698;2022-12-18T05:11:03;12.30;;;8.15;;
66927;SDS011;59882;45.624;11.698;2022-12-18T05:13:34;12.43;;;8.30;;
66927;SDS011;59882;45.624;11.698;2022-12-18T05:16:00;16.20;;;8.30;;
66927;SDS011;59882;45.624;11.698;2022-12-18T05:18:26;14.48;;;8.02;;
66927;SDS011;59882;45.624;11.698;2022-12-18T05:20:52;14.88;;;7.32;;
66927;SDS011;59882;45.624;11.698;2022-12-18T05:23:18;13.45;;;7.55;;
66927;SDS011;59882;45.624;11.698;2022-12-18T05:25:52;13.03;;;6.83;;
66927;SDS011;59882;45.624;11.698;2022-12-18T05:28:18;13.85;;;7.70;;
66927;SDS011;59882;45.624;11.698;2022-12-18T05:30:48;14.55;;;7.47;;
66927;SDS011;59882;45.624;11.698;2022-12-18T05:33:15;11.75;;;6.85;;
66927;SDS011;59882;45.624;11.698;2022-12-18T05:35:41;15.10;;;7.72;;
66927;SDS011;59882;45.624;11.698;2022-12-18T05:38:07;12.57;;;7.60;;
66927;SDS011;59882;45.624;11.698;2022-12-18T05:40:33;11.50;;;7.13;;
66927;SDS011;59882;45.624;11.698;2022-12-18T05:42:58;13.13;;;7.28;;
66927;SDS011;59882;45.624;11.698;2022-12-18T05:45:24;10.90;;;6.47;;
66927;SDS011;59882;45.624;11.698;2022-12-18T05:47:49;12.65;;;6.72;;
66927;SDS011;59882;45.624;11.698;2022-12-18T05:50:15;13.40;;;6.80;;
66927;SDS011;59882;45.624;11.698;2022-12-18T05:52:41;12.75;;;6.55;;
66927;SDS011;59882;45.624;11.698;2022-12-18T05:55:06;12.60;;;6.87;;
66927;SDS011;59882;45.624;11.698;2022-12-18T05:57:32;10.88;;;7.15;;
66927;SDS011;59882;45.624;11.698;2022-12-18T05:59:58;12.93;;;6.50;;
66927;SDS011;59882;45.624;11.698;2022-12-18T06:02:23;12.37;;;7.10;;
66927;SDS011;59882;45.624;11.698;2022-12-18T06:04:49;10.77;;;6.57;;
66927;SDS011;59882;45.624;11.698;2022-12-18T06:07:15;12.27;;;6.87;;
66927;SDS011;59882;45.624;11.698;2022-12-18T06:09:40;11.95;;;7.35;;
66927;SDS011;59882;45.624;11.698;2022-12-18T06:12:06;15.07;;;7.40;;
66927;SDS011;59882;45.624;11.698;2022-12-18T06:14:31;13.85;;;7.28;;
66927;SDS011;59882;45.624;11.698;2022-12-18T06:16:57;14.63;;;7.13;;
66927;SDS011;59882;45.624;11.698;2022-12-18T06:19:22;13.23;;;8.27;;
66927;SDS011;59882;45.624;11.698;2022-12-18T06:21:48;13.88;;;8.43;;
66927;SDS011;59882;45.624;11.698;2022-12-18T06:24:14;14.60;;;9.18;;
66927;SDS011;59882;45.624;11.698;2022-12-18T06:26:40;16.00;;;8.97;;
66927;SDS011;59882;45.624;11.698;2022-12-18T06:29:06;15.35;;;8.52;;
66927;SDS011;59882;45.624;11.698;2022-12-18T06:31:32;18.10;;;8.17;;
66927;SDS011;59882;45.624;11.698;2022-12-18T06:33:57;16.67;;;7.90;;
66927;SDS011;59882;45.624;11.698;2022-12-18T06:36:23;14.17;;;8.67;;
66927;SDS011;59882;45.624;11.698;2022-12-18T06:38:49;14.77;;;8.00;;
66927;SDS011;59882;45.624;11.698;2022-12-18T06:41:18;17.13;;;8.03;;
66927;SDS011;59882;45.624;11.698;2022-12-18T06:43:45;16.08;;;8.50;;
66927;SDS011;59882;45.624;11.698;2022-12-18T06:46:11;14.07;;;8.40;;
66927;SDS011;59882;45.624;11.698;2022-12-18T06:48:38;13.57;;;7.40;;
66927;SDS011;59882;45.624;11.698;2022-12-18T06:51:03;14.23;;;7.53;;
66927;SDS011;59882;45.624;11.698;2022-12-18T06:53:29;16.85;;;8.30;;
66927;SDS011;59882;45.624;11.698;2022-12-18T06:55:59;17.52;;;8.65;;
66927;SDS011;59882;45.624;11.698;2022-12-18T06:58:26;12.60;;;7.50;;
66927;SDS011;59882;45.624;11.698;2022-12-18T07:00:52;14.30;;;7.75;;
66927;SDS011;59882;45.624;11.698;2022-12-18T07:03:18;16.03;;;7.47;;
66927;SDS011;59882;45.624;11.698;2022-12-18T07:05:43;13.97;;;7.57;;
66927;SDS011;59882;45.624;11.698;2022-12-18T07:08:09;13.07;;;7.33;;
66927;SDS011;59882;45.624;11.698;2022-12-18T07:10:40;13.52;;;7.10;;
66927;SDS011;59882;45.624;11.698;2022-12-18T07:13:07;16.55;;;8.55;;
66927;SDS011;59882;45.624;11.698;2022-12-18T07:15:32;30.43;;;17.20;;
66927;SDS011;59882;45.624;11.698;2022-12-18T07:17:58;16.23;;;8.70;;
66927;SDS011;59882;45.624;11.698;2022-12-18T07:20:24;15.52;;;8.48;;
66927;SDS011;59882;45.624;11.698;2022-12-18T07:22:49;14.33;;;7.87;;
66927;SDS011;59882;45.624;11.698;2022-12-18T07:25:15;12.60;;;7.72;;
66927;SDS011;59882;45.624;11.698;2022-12-18T07:27:40;18.10;;;8.10;;
66927;SDS011;59882;45.624;11.698;2022-12-18T07:30:06;12.33;;;7.87;;
66927;SDS011;59882;45.624;11.698;2022-12-18T07:32:32;13.63;;;8.02;;
66927;SDS011;59882;45.624;11.698;2022-12-18T07:34:59;21.35;;;8.05;;
66927;SDS011;59882;45.624;11.698;2022-12-18T07:37:25;13.37;;;8.90;;
66927;SDS011;59882;45.624;11.698;2022-12-18T07:39:50;18.30;;;10.23;;
66927;SDS011;59882;45.624;11.698;2022-12-18T07:42:16;30.70;;;18.13;;
66927;SDS011;59882;45.624;11.698;2022-12-18T07:45:00;36.25;;;21.38;;
66927;SDS011;59882;45.624;11.698;2022-12-18T07:47:26;25.67;;;14.27;;
66927;SDS011;59882;45.624;11.698;2022-12-18T07:49:55;21.55;;;10.95;;
66927;SDS011;59882;45.624;11.698;2022-12-18T07:52:20;21.00;;;10.67;;
66927;SDS011;59882;45.624;11.698;2022-12-18T07:54:46;15.30;;;9.82;;
66927;SDS011;59882;45.624;11.698;2022-12-18T07:57:14;19.77;;;10.90;;
66927;SDS011;59882;45.624;11.698;2022-12-18T07:59:41;20.92;;;13.07;;
66927;SDS011;59882;45.624;11.698;2022-12-18T08:02:06;34.33;;;18.87;;
66927;SDS011;59882;45.624;11.698;2022-12-18T08:04:32;48.03;;;25.83;;
66927;SDS011;59882;45.624;11.698;2022-12-18T08:06:58;29.33;;;16.13;;
66927;SDS011;59882;45.624;11.698;2022-12-18T08:09:24;20.83;;;12.40;;
66927;SDS011;59882;45.624;11.698;2022-12-18T08:11:49;26.03;;;15.83;;
66927;SDS011;59882;45.624;11.698;2022-12-18T08:14:15;27.03;;;16.77;;
66927;SDS011;59882;45.624;11.698;2022-12-18T08:16:40;23.98;;;15.32;;
66927;SDS011;59882;45.624;11.698;2022-12-18T08:19:06;108.03;;;49.80;;
66927;SDS011;59882;45.624;11.698;2022-12-18T08:21:32;92.15;;;44.45;;
66927;SDS011;59882;45.624;11.698;2022-12-18T08:23:59;160.40;;;74.93;;
66927;SDS011;59882;45.624;11.698;2022-12-18T08:26:26;242.77;;;102.63;;
66927;SDS011;59882;45.624;11.698;2022-12-18T08:28:54;59.42;;;29.15;;
66927;SDS011;59882;45.624;11.698;2022-12-18T08:31:21;62.15;;;27.55;;
66927;SDS011;59882;45.624;11.698;2022-12-18T08:33:51;158.73;;;62.00;;
66927;SDS011;59882;45.624;11.698;2022-12-18T08:36:17;240.93;;;102.20;;
66927;SDS011;59882;45.624;11.698;2022-12-18T08:38:44;64.03;;;31.95;;
66927;SDS011;59882;45.624;11.698;2022-12-18T08:41:11;43.13;;;23.33;;
66927;SDS011;59882;45.624;11.698;2022-12-18T08:43:37;55.20;;;35.50;;
66927;SDS011;59882;45.624;11.698;2022-12-18T08:46:23;30.88;;;16.75;;
66927;SDS011;59882;45.624;11.698;2022-12-18T08:48:51;21.00;;;15.90;;
66927;SDS011;59882;45.624;11.698;2022-12-18T08:51:17;21.08;;;14.50;;
66927;SDS011;59882;45.624;11.698;2022-12-18T08:53:43;20.40;;;12.45;;
66927;SDS011;59882;45.624;11.698;2022-12-18T08:56:09;21.17;;;12.30;;
66927;SDS011;59882;45.624;11.698;2022-12-18T08:58:35;18.70;;;12.68;;
66927;SDS011;59882;45.624;11.698;2022-12-18T09:01:02;18.17;;;11.85;;
66927;SDS011;59882;45.624;11.698;2022-12-18T09:03:29;19.23;;;12.40;;
66927;SDS011;59882;45.624;11.698;2022-12-18T09:05:54;26.33;;;15.60;;
66927;SDS011;59882;45.624;11.698;2022-12-18T09:08:20;23.73;;;15.67;;
66927;SDS011;59882;45.624;11.698;2022-12-18T09:10:46;20.85;;;14.35;;
66927;SDS011;59882;45.624;11.698;2022-12-18T09:13:13;18.88;;;13.10;;
66927;SDS011;59882;45.624;11.698;2022-12-18T09:15:43;18.43;;;13.83;;
66927;SDS011;59882;45.624;11.698;2022-12-18T09:18:11;20.23;;;12.25;;
66927;SDS011;59882;45.624;11.698;2022-12-18T09:20:37;16.02;;;11.48;;
66927;SDS011;59882;45.624;11.698;2022-12-18T09:23:04;16.42;;;11.32;;
66927;SDS011;59882;45.624;11.698;2022-12-18T09:25:30;17.30;;;11.95;;
66927;SDS011;59882;45.624;11.698;2022-12-18T09:28:01;16.57;;;11.60;;
66927;SDS011;59882;45.624;11.698;2022-12-18T09:30:27;16.20;;;10.60;;
66927;SDS011;59882;45.624;11.698;2022-12-18T09:32:53;17.55;;;11.00;;
66927;SDS011;59882;45.624;11.698;2022-12-18T09:35:19;14.80;;;9.23;;
66927;SDS011;59882;45.624;11.698;2022-12-18T09:37:44;15.93;;;10.27;;
66927;SDS011;59882;45.624;11.698;2022-12-18T09:40:18;17.73;;;9.90;;
66927;SDS011;59882;45.624;11.698;2022-12-18T09:42:47;18.00;;;9.98;;
66927;SDS011;59882;45.624;11.698;2022-12-18T09:45:21;14.68;;;9.25;;
66927;SDS011;59882;45.624;11.698;2022-12-18T09:47:48;15.57;;;9.50;;
66927;SDS011;59882;45.624;11.698;2022-12-18T09:50:22;16.38;;;9.05;;
66927;SDS011;59882;45.624;11.698;2022-12-18T09:53:02;14.88;;;9.88;;
66927;SDS011;59882;45.624;11.698;2022-12-18T09:55:42;15.55;;;9.65;;
66927;SDS011;59882;45.624;11.698;2022-12-18T09:58:30;16.15;;;10.35;;
66927;SDS011;59882;45.624;11.698;2022-12-18T10:01:14;16.93;;;10.57;;
66927;SDS011;59882;45.624;11.698;2022-12-18T10:03:45;15.88;;;9.23;;
66927;SDS011;59882;45.624;11.698;2022-12-18T10:06:18;13.93;;;9.75;;
66927;SDS011;59882;45.624;11.698;2022-12-18T10:16:58;12.75;;;8.55;;
66927;SDS011;59882;45.624;11.698;2022-12-18T10:27:29;14.37;;;9.33;;
66927;SDS011;59882;45.624;11.698;2022-12-18T10:29:55;13.32;;;8.98;;
66927;SDS011;59882;45.624;11.698;2022-12-18T10:32:24;15.25;;;9.02;;
66927;SDS011;59882;45.624;11.698;2022-12-18T10:34:52;15.18;;;9.00;;
66927;SDS011;59882;45.624;11.698;2022-12-18T10:37:22;16.17;;;9.23;;
66927;SDS011;59882;45.624;11.698;2022-12-18T10:40:10;14.27;;;9.00;;
66927;SDS011;59882;45.624;11.698;2022-12-18T10:42:36;13.30;;;8.45;;
66927;SDS011;59882;45.624;11.698;2022-12-18T10:45:08;13.13;;;8.50;;
66927;SDS011;59882;45.624;11.698;2022-12-18T10:47:42;16.90;;;8.20;;
66927;SDS011;59882;45.624;11.698;2022-12-18T10:50:17;15.32;;;9.32;;
66927;SDS011;59882;45.624;11.698;2022-12-18T10:52:53;15.80;;;9.23;;
66927;SDS011;59882;45.624;11.698;2022-12-18T10:55:31;14.57;;;8.32;;
66927;SDS011;59882;45.624;11.698;2022-12-18T11:01:10;11.25;;;7.25;;
66927;SDS011;59882;45.624;11.698;2022-12-18T11:06:15;13.33;;;7.00;;
66927;SDS011;59882;45.624;11.698;2022-12-18T11:08:43;12.75;;;7.15;;
66927;SDS011;59882;45.624;11.698;2022-12-18T11:11:22;12.32;;;6.93;;
66927;SDS011;59882;45.624;11.698;2022-12-18T11:14:41;13.38;;;7.70;;
66927;SDS011;59882;45.624;11.698;2022-12-18T11:16:45;9.50;;;6.47;;
66927;SDS011;59882;45.624;11.698;2022-12-18T11:27:19;16.03;;;7.10;;
66927;SDS011;59882;45.624;11.698;2022-12-18T11:29:46;10.75;;;7.03;;
66927;SDS011;59882;45.624;11.698;2022-12-18T11:34:45;13.38;;;7.43;;
66927;SDS011;59882;45.624;11.698;2022-12-18T11:37:14;12.18;;;7.13;;
66927;SDS011;59882;45.624;11.698;2022-12-18T11:39:55;19.07;;;10.07;;
66927;SDS011;59882;45.624;11.698;2022-12-18T11:42:32;17.98;;;9.20;;
66927;SDS011;59882;45.624;11.698;2022-12-18T11:47:44;11.43;;;6.97;;
66927;SDS011;59882;45.624;11.698;2022-12-18T11:50:19;13.27;;;7.20;;
66927;SDS011;59882;45.624;11.698;2022-12-18T11:52:48;10.77;;;6.97;;
66927;SDS011;59882;45.624;11.698;2022-12-18T12:00:15;11.98;;;7.03;;
66927;SDS011;59882;45.624;11.698;2022-12-18T12:02:56;11.80;;;7.27;;
66927;SDS011;59882;45.624;11.698;2022-12-18T12:17:36;9.17;;;6.93;;
66927;SDS011;59882;45.624;11.698;2022-12-18T12:23:43;10.40;;;7.55;;
66927;SDS011;59882;45.624;11.698;2022-12-18T12:26:07;8.07;;;6.70;;
66927;SDS011;59882;45.624;11.698;2022-12-18T12:28:48;8.82;;;6.85;;
66927;SDS011;59882;45.624;11.698;2022-12-18T12:34:26;11.10;;;7.20;;
66927;SDS011;59882;45.624;11.698;2022-12-18T12:39:42;9.40;;;6.70;;
66927;SDS011;59882;45.624;11.698;2022-12-18T12:42:13;8.10;;;6.35;;
66927;SDS011;59882;45.624;11.698;2022-12-18T12:45:05;11.07;;;6.90;;
66927;SDS011;59882;45.624;11.698;2022-12-18T12:47:38;9.65;;;6.60;;
66927;SDS011;59882;45.624;11.698;2022-12-18T12:50:12;11.68;;;7.07;;
66927;SDS011;59882;45.624;11.698;2022-12-18T12:52:42;11.10;;;8.57;;
66927;SDS011;59882;45.624;11.698;2022-12-18T12:55:14;9.55;;;7.57;;
66927;SDS011;59882;45.624;11.698;2022-12-18T12:57:48;9.10;;;7.50;;
66927;SDS011;59882;45.624;11.698;2022-12-18T13:00:23;8.95;;;7.15;;
66927;SDS011;59882;45.624;11.698;2022-12-18T13:03:06;11.27;;;7.30;;
66927;SDS011;59882;45.624;11.698;2022-12-18T13:05:40;9.98;;;7.28;;
66927;SDS011;59882;45.624;11.698;2022-12-18T13:08:24;10.70;;;7.15;;
66927;SDS011;59882;45.624;11.698;2022-12-18T13:10:52;9.37;;;7.53;;
66927;SDS011;59882;45.624;11.698;2022-12-18T13:16:21;8.75;;;6.75;;
66927;SDS011;59882;45.624;11.698;2022-12-18T13:18:52;8.82;;;6.80;;
66927;SDS011;59882;45.624;11.698;2022-12-18T13:21:26;9.13;;;7.35;;
66927;SDS011;59882;45.624;11.698;2022-12-18T13:23:54;9.03;;;7.03;;
66927;SDS011;59882;45.624;11.698;2022-12-18T13:28:50;10.27;;;7.40;;
66927;SDS011;59882;45.624;11.698;2022-12-18T13:36:46;10.50;;;7.50;;
66927;SDS011;59882;45.624;11.698;2022-12-18T13:41:51;10.93;;;7.75;;
66927;SDS011;59882;45.624;11.698;2022-12-18T13:44:31;8.93;;;7.22;;
66927;SDS011;59882;45.624;11.698;2022-12-18T13:46:59;9.38;;;7.03;;
66927;SDS011;59882;45.624;11.698;2022-12-18T13:49:38;11.17;;;7.10;;
66927;SDS011;59882;45.624;11.698;2022-12-18T13:52:25;9.82;;;7.13;;
66927;SDS011;59882;45.624;11.698;2022-12-18T13:54:58;8.50;;;6.38;;
66927;SDS011;59882;45.624;11.698;2022-12-18T13:57:33;9.80;;;7.30;;
66927;SDS011;59882;45.624;11.698;2022-12-18T14:02:47;12.30;;;7.53;;
66927;SDS011;59882;45.624;11.698;2022-12-18T14:05:30;11.05;;;7.80;;
66927;SDS011;59882;45.624;11.698;2022-12-18T14:08:01;9.95;;;7.00;;
66927;SDS011;59882;45.624;11.698;2022-12-18T14:10:31;12.25;;;7.93;;
66927;SDS011;59882;45.624;11.698;2022-12-18T14:12:57;12.55;;;8.02;;
66927;SDS011;59882;45.624;11.698;2022-12-18T14:15:35;9.77;;;7.90;;
66927;SDS011;59882;45.624;11.698;2022-12-18T14:21:17;10.40;;;7.22;;
66927;SDS011;59882;45.624;11.698;2022-12-18T14:23:48;12.23;;;8.55;;
66927;SDS011;59882;45.624;11.698;2022-12-18T14:26:28;11.48;;;8.18;;
66927;SDS011;59882;45.624;11.698;2022-12-18T14:28:56;11.13;;;8.33;;
66927;SDS011;59882;45.624;11.698;2022-12-18T14:31:23;11.88;;;8.55;;
66927;SDS011;59882;45.624;11.698;2022-12-18T14:33:51;13.48;;;8.95;;
66927;SDS011;59882;45.624;11.698;2022-12-18T14:36:19;13.32;;;8.40;;
66927;SDS011;59882;45.624;11.698;2022-12-18T14:38:48;15.32;;;8.63;;
66927;SDS011;59882;45.624;11.698;2022-12-18T14:41:24;12.50;;;8.43;;
66927;SDS011;59882;45.624;11.698;2022-12-18T14:43:51;13.35;;;8.82;;
66927;SDS011;59882;45.624;11.698;2022-12-18T14:49:24;18.25;;;9.40;;
66927;SDS011;59882;45.624;11.698;2022-12-18T14:51:54;16.73;;;10.00;;
66927;SDS011;59882;45.624;11.698;2022-12-18T14:54:22;15.53;;;10.20;;
66927;SDS011;59882;45.624;11.698;2022-12-18T14:59:38;17.15;;;9.68;;
66927;SDS011;59882;45.624;11.698;2022-12-18T15:04:39;17.13;;;10.15;;
66927;SDS011;59882;45.624;11.698;2022-12-18T15:09:43;15.27;;;9.75;;
66927;SDS011;59882;45.624;11.698;2022-12-18T15:12:28;15.82;;;9.70;;
66927;SDS011;59882;45.624;11.698;2022-12-18T15:15:03;18.90;;;9.97;;
66927;SDS011;59882;45.624;11.698;2022-12-18T15:17:29;16.17;;;8.73;;
66927;SDS011;59882;45.624;11.698;2022-12-18T15:20:03;17.48;;;9.63;;
66927;SDS011;59882;45.624;11.698;2022-12-18T15:22:36;16.38;;;10.18;;
66927;SDS011;59882;45.624;11.698;2022-12-18T15:25:03;21.03;;;9.97;;
66927;SDS011;59882;45.624;11.698;2022-12-18T15:27:49;18.08;;;10.80;;
66927;SDS011;59882;45.624;11.698;2022-12-18T15:32:43;22.85;;;12.10;;
66927;SDS011;59882;45.624;11.698;2022-12-18T15:35:16;21.67;;;11.27;;
66927;SDS011;59882;45.624;11.698;2022-12-18T15:37:47;19.17;;;11.73;;
66927;SDS011;59882;45.624;11.698;2022-12-18T15:40:18;23.20;;;10.57;;
66927;SDS011;59882;45.624;11.698;2022-12-18T15:42:45;17.47;;;11.03;;
66927;SDS011;59882;45.624;11.698;2022-12-18T15:45:31;23.38;;;13.00;;
66927;SDS011;59882;45.624;11.698;2022-12-18T15:47:56;22.50;;;13.52;;
66927;SDS011;59882;45.624;11.698;2022-12-18T15:50:22;21.20;;;12.90;;
66927;SDS011;59882;45.624;11.698;2022-12-18T15:52:48;25.65;;;14.73;;
66927;SDS011;59882;45.624;11.698;2022-12-18T15:55:18;23.65;;;14.50;;
66927;SDS011;59882;45.624;11.698;2022-12-18T15:58:04;21.43;;;13.80;;
66927;SDS011;59882;45.624;11.698;2022-12-18T16:00:31;22.63;;;14.05;;
66927;SDS011;59882;45.624;11.698;2022-12-18T16:02:59;23.38;;;15.23;;
66927;SDS011;59882;45.624;11.698;2022-12-18T16:05:24;27.17;;;16.10;;
66927;SDS011;59882;45.624;11.698;2022-12-18T16:07:52;24.60;;;16.33;;
66927;SDS011;59882;45.624;11.698;2022-12-18T16:10:18;23.92;;;16.63;;
66927;SDS011;59882;45.624;11.698;2022-12-18T16:12:44;28.10;;;15.20;;
66927;SDS011;59882;45.624;11.698;2022-12-18T16:15:10;27.90;;;16.23;;
66927;SDS011;59882;45.624;11.698;2022-12-18T16:17:39;28.95;;;17.30;;
66927;SDS011;59882;45.624;11.698;2022-12-18T16:20:05;28.45;;;17.42;;
66927;SDS011;59882;45.624;11.698;2022-12-18T16:22:36;29.30;;;16.35;;
66927;SDS011;59882;45.624;11.698;2022-12-18T16:25:02;24.30;;;14.97;;
66927;SDS011;59882;45.624;11.698;2022-12-18T16:27:30;26.42;;;16.08;;
66927;SDS011;59882;45.624;11.698;2022-12-18T16:29:55;25.63;;;15.47;;
66927;SDS011;59882;45.624;11.698;2022-12-18T16:32:21;23.70;;;15.43;;
66927;SDS011;59882;45.624;11.698;2022-12-18T16:34:47;23.45;;;15.48;;